Weather at San Fernando de Atabapo Airport

Public forecast

Using degrees Celsius for public forecast. Weather courtesy of forecast.io.

Closest aviation weather report (METAR) to San Fernando de Atabapo Airport

Report is more than 6 hours old.

Closest report is Cacique Aramare Airport, 94.4 nm (174.8 km) N. Retrieved 2020/07/30 12:02 UTC (2 months ago):

SVPA 301202Z AUTO 16006KT NCD 24/24 Q1013

Closest aviation forecast (TAF) to San Fernando de Atabapo Airport

Closest forecast is El Dorado International Airport, 387.9 nm (718.5 km) W. Retrieved 2020/09/25 06:55 UTC (3 hours ago):

TAF SKBO 250430Z 2506/2606 VRB03KT 9999 SCT017 BKN070 BECMG 2514/2516 15010KT PROB30 TEMPO 2521/2524 DZRA BKN017 BECMG 2600/2602 05005KT 9999 FEW017 SCT070 TX21/2518Z TN06/2511Z